Aitkin, MN

3:18 PM CST on February 08, 2016 (GMT -0600)
Aitkin Municipal / Steve Kurtz Field | | Change Station
CLOSE
Current Station
Airport
Location: Aitkin,
Elevation: 1204 ft
Nearby Weather Stations

Elev 1204 ft 46.55 °N, 93.68 °W | Updated 5 minutes ago

Overcast
Overcast
14 °F
Feels Like 1 °F
N
10
Wind Variable Wind from NW
Gusts 18 mph

Today
High -- | Low -- °F
--% Chance of Precip.
Yesterday
High -- | Low -- °F
Precip. -- in
Pressure 29.95 in
Visibility 10.0 miles
Clouds Overcast 2500 ft
Windchill 1 °F
Dew Point 1 °F
Humidity 57%
Rainfall 0.00 in
Snow Depth Not available.
7:29 AM 5:28 PM
New Moon, 0% visible
METAR KAIT 082113Z AUTO 31009G16KT 10SM UP OVC025 M10/M17 A2995 RMK AO2
Pressure 29.95 in
Visibility 10.0 miles
Clouds Overcast 2500 ft
Windchill 1 °F
Dew Point 1 °F
Humidity 57%
Rainfall 0.00 in
Snow Depth Not available.
7:29 AM 5:28 PM
New Moon, 0% visible
METAR KAIT 082113Z AUTO 31009G16KT 10SM UP OVC025 M10/M17 A2995 RMK AO2

10-Day Weather Forecast

Almanac

Astronomy

Feb. 08, 2016 Rise Set
Actual Time
Civil Twilight
Nautical Twilight
Astronomical Twilight
Moon
Length of Visible Light
Length of Day
Tomorrow will be .
, % of the Moon is Illuminated

Today's Extremes

State Highs State Lows

Community

WunderPhotos

Upload Photos

1,891,516 photos uploaded!

WunderBlog® & News

Nearby

Air Quality

  Air Quality AQ Index Pollutant
Not available.

Snow Depth

Station Depth Elevation

Earthquake Activity

City Distance Mag. Time & Date
Minimum magnitude displayed is 2.5.

Coastal Water Temperatures

Place Temperature

Stations

Nearby Weather Stations

Station Location Temp. Windchill Dew Point Humidity Wind Precip. Elev Updated Type
                   

Watches & Warnings

There are currently no watches in effect.